sensor_id;sensor_type;location;lat;lon;timestamp;P1;durP1;ratioP1;P2;durP2;ratioP2
19280;SDS011;9774;52.034;5.342;2023-04-01T00:01:00;4.57;;;2.53;;
19280;SDS011;9774;52.034;5.342;2023-04-01T00:03:29;7.10;;;2.78;;
19280;SDS011;9774;52.034;5.342;2023-04-01T00:05:58;4.40;;;3.22;;
19280;SDS011;9774;52.034;5.342;2023-04-01T00:08:28;7.78;;;3.42;;
19280;SDS011;9774;52.034;5.342;2023-04-01T00:10:56;8.10;;;3.30;;
19280;SDS011;9774;52.034;5.342;2023-04-01T00:13:23;8.55;;;3.38;;
19280;SDS011;9774;52.034;5.342;2023-04-01T00:15:51;6.18;;;3.50;;
19280;SDS011;9774;52.034;5.342;2023-04-01T00:18:20;7.32;;;3.47;;
19280;SDS011;9774;52.034;5.342;2023-04-01T00:20:48;11.15;;;4.38;;
19280;SDS011;9774;52.034;5.342;2023-04-01T00:23:17;7.32;;;3.50;;
19280;SDS011;9774;52.034;5.342;2023-04-01T00:29:09;8.48;;;3.42;;
19280;SDS011;9774;52.034;5.342;2023-04-01T00:31:37;13.32;;;4.90;;
19280;SDS011;9774;52.034;5.342;2023-04-01T00:34:05;9.95;;;4.75;;
19280;SDS011;9774;52.034;5.342;2023-04-01T00:36:33;9.68;;;4.57;;
19280;SDS011;9774;52.034;5.342;2023-04-01T00:39:00;6.90;;;4.38;;
19280;SDS011;9774;52.034;5.342;2023-04-01T00:41:27;9.57;;;4.88;;
19280;SDS011;9774;52.034;5.342;2023-04-01T00:46:46;9.20;;;5.07;;
19280;SDS011;9774;52.034;5.342;2023-04-01T00:49:14;8.95;;;4.95;;
19280;SDS011;9774;52.034;5.342;2023-04-01T00:51:43;8.30;;;4.60;;
19280;SDS011;9774;52.034;5.342;2023-04-01T00:54:15;11.68;;;5.97;;
19280;SDS011;9774;52.034;5.342;2023-04-01T00:56:45;8.30;;;5.47;;
19280;SDS011;9774;52.034;5.342;2023-04-01T00:59:16;10.35;;;5.07;;
19280;SDS011;9774;52.034;5.342;2023-04-01T01:01:48;10.15;;;5.88;;
19280;SDS011;9774;52.034;5.342;2023-04-01T01:04:23;7.93;;;5.38;;
19280;SDS011;9774;52.034;5.342;2023-04-01T01:06:56;9.18;;;4.80;;
19280;SDS011;9774;52.034;5.342;2023-04-01T01:09:34;13.90;;;5.30;;
19280;SDS011;9774;52.034;5.342;2023-04-01T01:12:09;8.80;;;5.43;;
19280;SDS011;9774;52.034;5.342;2023-04-01T01:14:44;9.55;;;5.32;;
19280;SDS011;9774;52.034;5.342;2023-04-01T01:17:22;8.63;;;4.90;;
19280;SDS011;9774;52.034;5.342;2023-04-01T01:20:03;10.45;;;4.97;;
19280;SDS011;9774;52.034;5.342;2023-04-01T01:25:59;7.93;;;4.18;;
19280;SDS011;9774;52.034;5.342;2023-04-01T01:28:44;10.25;;;4.60;;
19280;SDS011;9774;52.034;5.342;2023-04-01T01:31:22;7.15;;;4.13;;
19280;SDS011;9774;52.034;5.342;2023-04-01T01:33:59;7.82;;;5.28;;
19280;SDS011;9774;52.034;5.342;2023-04-01T01:36:34;8.30;;;4.88;;
19280;SDS011;9774;52.034;5.342;2023-04-01T01:39:04;8.00;;;4.75;;
19280;SDS011;9774;52.034;5.342;2023-04-01T01:41:34;8.57;;;4.90;;
19280;SDS011;9774;52.034;5.342;2023-04-01T01:44:02;11.38;;;5.50;;
19280;SDS011;9774;52.034;5.342;2023-04-01T01:46:32;10.63;;;5.65;;
19280;SDS011;9774;52.034;5.342;2023-04-01T01:49:00;7.32;;;5.00;;
19280;SDS011;9774;52.034;5.342;2023-04-01T01:51:29;10.63;;;5.20;;
19280;SDS011;9774;52.034;5.342;2023-04-01T01:53:58;8.23;;;4.97;;
19280;SDS011;9774;52.034;5.342;2023-04-01T01:56:26;9.07;;;4.90;;
19280;SDS011;9774;52.034;5.342;2023-04-01T01:58:56;9.10;;;5.50;;
19280;SDS011;9774;52.034;5.342;2023-04-01T02:01:27;9.80;;;5.45;;
19280;SDS011;9774;52.034;5.342;2023-04-01T02:03:57;8.23;;;4.38;;
19280;SDS011;9774;52.034;5.342;2023-04-01T02:06:26;9.10;;;4.05;;
19280;SDS011;9774;52.034;5.342;2023-04-01T02:08:55;8.65;;;4.43;;
19280;SDS011;9774;52.034;5.342;2023-04-01T02:11:28;7.40;;;4.05;;
19280;SDS011;9774;52.034;5.342;2023-04-01T02:14:01;7.15;;;3.90;;
19280;SDS011;9774;52.034;5.342;2023-04-01T02:16:32;8.25;;;4.30;;
19280;SDS011;9774;52.034;5.342;2023-04-01T02:19:04;10.63;;;4.60;;
19280;SDS011;9774;52.034;5.342;2023-04-01T02:21:33;8.55;;;4.03;;
19280;SDS011;9774;52.034;5.342;2023-04-01T02:24:05;9.40;;;4.75;;
19280;SDS011;9774;52.034;5.342;2023-04-01T02:26:38;6.18;;;3.88;;
19280;SDS011;9774;52.034;5.342;2023-04-01T02:29:06;5.80;;;3.67;;
19280;SDS011;9774;52.034;5.342;2023-04-01T02:31:37;6.60;;;4.13;;
19280;SDS011;9774;52.034;5.342;2023-04-01T02:34:05;6.93;;;3.53;;
19280;SDS011;9774;52.034;5.342;2023-04-01T02:36:34;7.40;;;3.70;;
19280;SDS011;9774;52.034;5.342;2023-04-01T02:39:02;4.15;;;2.75;;
19280;SDS011;9774;52.034;5.342;2023-04-01T02:41:31;4.75;;;3.00;;
19280;SDS011;9774;52.034;5.342;2023-04-01T02:44:04;4.18;;;3.30;;
19280;SDS011;9774;52.034;5.342;2023-04-01T02:46:32;5.88;;;3.17;;
19280;SDS011;9774;52.034;5.342;2023-04-01T02:49:00;4.57;;;2.83;;
19280;SDS011;9774;52.034;5.342;2023-04-01T02:51:27;4.00;;;2.53;;
19280;SDS011;9774;52.034;5.342;2023-04-01T02:53:55;4.50;;;2.83;;
19280;SDS011;9774;52.034;5.342;2023-04-01T02:56:23;5.43;;;3.10;;
19280;SDS011;9774;52.034;5.342;2023-04-01T02:58:51;5.95;;;3.17;;
19280;SDS011;9774;52.034;5.342;2023-04-01T03:01:18;4.57;;;2.92;;
19280;SDS011;9774;52.034;5.342;2023-04-01T03:03:46;4.10;;;3.08;;
19280;SDS011;9774;52.034;5.342;2023-04-01T03:06:14;4.05;;;2.67;;
19280;SDS011;9774;52.034;5.342;2023-04-01T03:08:44;5.85;;;2.95;;
19280;SDS011;9774;52.034;5.342;2023-04-01T03:11:12;3.72;;;2.08;;
19280;SDS011;9774;52.034;5.342;2023-04-01T03:13:41;3.22;;;2.25;;
19280;SDS011;9774;52.034;5.342;2023-04-01T03:16:08;3.55;;;2.20;;
19280;SDS011;9774;52.034;5.342;2023-04-01T03:18:35;2.70;;;1.90;;
19280;SDS011;9774;52.034;5.342;2023-04-01T03:21:12;3.90;;;2.25;;
19280;SDS011;9774;52.034;5.342;2023-04-01T03:23:40;2.45;;;1.92;;
19280;SDS011;9774;52.034;5.342;2023-04-01T03:26:08;4.00;;;2.50;;
19280;SDS011;9774;52.034;5.342;2023-04-01T03:28:35;2.90;;;2.15;;
19280;SDS011;9774;52.034;5.342;2023-04-01T03:31:04;2.95;;;2.08;;
19280;SDS011;9774;52.034;5.342;2023-04-01T03:33:32;2.63;;;2.13;;
19280;SDS011;9774;52.034;5.342;2023-04-01T03:35:59;4.32;;;2.58;;
19280;SDS011;9774;52.034;5.342;2023-04-01T03:38:28;3.47;;;2.35;;
19280;SDS011;9774;52.034;5.342;2023-04-01T03:40:55;3.25;;;2.90;;
19280;SDS011;9774;52.034;5.342;2023-04-01T03:43:23;4.03;;;3.08;;
19280;SDS011;9774;52.034;5.342;2023-04-01T03:45:51;5.07;;;2.90;;
19280;SDS011;9774;52.034;5.342;2023-04-01T03:48:20;3.75;;;2.60;;
19280;SDS011;9774;52.034;5.342;2023-04-01T03:50:48;4.15;;;2.80;;
19280;SDS011;9774;52.034;5.342;2023-04-01T03:53:15;3.45;;;2.35;;
19280;SDS011;9774;52.034;5.342;2023-04-01T03:55:43;3.15;;;2.33;;
19280;SDS011;9774;52.034;5.342;2023-04-01T03:58:10;2.97;;;2.40;;
19280;SDS011;9774;52.034;5.342;2023-04-01T04:00:37;3.72;;;2.58;;
19280;SDS011;9774;52.034;5.342;2023-04-01T04:03:05;3.03;;;2.70;;
19280;SDS011;9774;52.034;5.342;2023-04-01T04:05:35;3.50;;;2.80;;
19280;SDS011;9774;52.034;5.342;2023-04-01T04:08:03;3.08;;;2.58;;
19280;SDS011;9774;52.034;5.342;2023-04-01T04:10:31;3.95;;;2.42;;
19280;SDS011;9774;52.034;5.342;2023-04-01T04:13:00;4.13;;;3.13;;
19280;SDS011;9774;52.034;5.342;2023-04-01T04:15:27;3.10;;;2.80;;
19280;SDS011;9774;52.034;5.342;2023-04-01T04:17:54;3.78;;;2.85;;
19280;SDS011;9774;52.034;5.342;2023-04-01T04:20:22;3.80;;;2.83;;
19280;SDS011;9774;52.034;5.342;2023-04-01T04:22:51;2.85;;;2.28;;
19280;SDS011;9774;52.034;5.342;2023-04-01T04:25:18;3.15;;;2.78;;
19280;SDS011;9774;52.034;5.342;2023-04-01T04:27:45;3.30;;;2.55;;
19280;SDS011;9774;52.034;5.342;2023-04-01T04:30:13;3.97;;;2.72;;
19280;SDS011;9774;52.034;5.342;2023-04-01T04:32:40;4.18;;;3.28;;
19280;SDS011;9774;52.034;5.342;2023-04-01T04:35:08;3.90;;;2.70;;
19280;SDS011;9774;52.034;5.342;2023-04-01T04:37:35;4.35;;;2.50;;
19280;SDS011;9774;52.034;5.342;2023-04-01T04:40:04;3.00;;;2.70;;
19280;SDS011;9774;52.034;5.342;2023-04-01T04:42:33;3.97;;;2.80;;
19280;SDS011;9774;52.034;5.342;2023-04-01T04:45:00;2.08;;;1.67;;
19280;SDS011;9774;52.034;5.342;2023-04-01T04:47:28;4.03;;;2.72;;
19280;SDS011;9774;52.034;5.342;2023-04-01T04:49:55;3.15;;;2.40;;
19280;SDS011;9774;52.034;5.342;2023-04-01T04:52:22;2.97;;;2.10;;
19280;SDS011;9774;52.034;5.342;2023-04-01T04:54:50;3.45;;;1.90;;
19280;SDS011;9774;52.034;5.342;2023-04-01T04:57:18;2.60;;;1.92;;
19280;SDS011;9774;52.034;5.342;2023-04-01T04:59:46;2.53;;;1.63;;
19280;SDS011;9774;52.034;5.342;2023-04-01T05:02:13;3.20;;;1.90;;
19280;SDS011;9774;52.034;5.342;2023-04-01T05:04:40;1.92;;;1.58;;
19280;SDS011;9774;52.034;5.342;2023-04-01T05:07:08;2.05;;;1.42;;
19280;SDS011;9774;52.034;5.342;2023-04-01T05:09:35;1.58;;;1.20;;
19280;SDS011;9774;52.034;5.342;2023-04-01T05:12:03;3.42;;;2.03;;
19280;SDS011;9774;52.034;5.342;2023-04-01T05:14:31;2.90;;;2.13;;
19280;SDS011;9774;52.034;5.342;2023-04-01T05:16:59;2.60;;;1.92;;
19280;SDS011;9774;52.034;5.342;2023-04-01T05:19:26;2.83;;;1.80;;
19280;SDS011;9774;52.034;5.342;2023-04-01T05:21:53;3.03;;;1.80;;
19280;SDS011;9774;52.034;5.342;2023-04-01T05:24:20;3.35;;;2.28;;
19280;SDS011;9774;52.034;5.342;2023-04-01T05:26:49;3.83;;;2.13;;
19280;SDS011;9774;52.034;5.342;2023-04-01T05:29:16;3.10;;;1.80;;
19280;SDS011;9774;52.034;5.342;2023-04-01T05:31:45;3.85;;;2.22;;
19280;SDS011;9774;52.034;5.342;2023-04-01T05:34:12;3.13;;;2.33;;
19280;SDS011;9774;52.034;5.342;2023-04-01T05:36:40;2.75;;;2.42;;
19280;SDS011;9774;52.034;5.342;2023-04-01T05:39:08;4.22;;;2.90;;
19280;SDS011;9774;52.034;5.342;2023-04-01T05:41:35;2.80;;;2.38;;
19280;SDS011;9774;52.034;5.342;2023-04-01T05:44:02;3.70;;;2.80;;
19280;SDS011;9774;52.034;5.342;2023-04-01T05:46:30;3.17;;;2.65;;
19280;SDS011;9774;52.034;5.342;2023-04-01T05:48:59;4.25;;;2.95;;
19280;SDS011;9774;52.034;5.342;2023-04-01T05:51:27;4.05;;;3.22;;
19280;SDS011;9774;52.034;5.342;2023-04-01T05:53:54;4.40;;;2.83;;
19280;SDS011;9774;52.034;5.342;2023-04-01T05:56:21;3.85;;;3.10;;
19280;SDS011;9774;52.034;5.342;2023-04-01T05:58:50;4.82;;;3.38;;
19280;SDS011;9774;52.034;5.342;2023-04-01T06:01:22;4.85;;;3.58;;
19280;SDS011;9774;52.034;5.342;2023-04-01T06:03:49;4.38;;;3.30;;
19280;SDS011;9774;52.034;5.342;2023-04-01T06:06:20;4.32;;;3.38;;
19280;SDS011;9774;52.034;5.342;2023-04-01T06:08:51;4.00;;;3.00;;
19280;SDS011;9774;52.034;5.342;2023-04-01T06:11:23;4.53;;;3.42;;
19280;SDS011;9774;52.034;5.342;2023-04-01T06:14:05;3.70;;;3.00;;
19280;SDS011;9774;52.034;5.342;2023-04-01T06:16:54;3.65;;;3.10;;
19280;SDS011;9774;52.034;5.342;2023-04-01T06:19:34;4.05;;;3.22;;
19280;SDS011;9774;52.034;5.342;2023-04-01T06:22:19;4.05;;;3.20;;
19280;SDS011;9774;52.034;5.342;2023-04-01T06:25:14;4.18;;;3.22;;
19280;SDS011;9774;52.034;5.342;2023-04-01T06:28:28;4.35;;;3.53;;
19280;SDS011;9774;52.034;5.342;2023-04-01T06:31:28;3.28;;;2.97;;
19280;SDS011;9774;52.034;5.342;2023-04-01T06:34:17;3.92;;;2.78;;
19280;SDS011;9774;52.034;5.342;2023-04-01T06:36:59;4.05;;;3.00;;
19280;SDS011;9774;52.034;5.342;2023-04-01T06:42:49;4.03;;;2.65;;
19280;SDS011;9774;52.034;5.342;2023-04-01T06:45:33;3.90;;;2.80;;
19280;SDS011;9774;52.034;5.342;2023-04-01T06:48:14;3.97;;;2.97;;
19280;SDS011;9774;52.034;5.342;2023-04-01T06:50:52;3.53;;;2.97;;
19280;SDS011;9774;52.034;5.342;2023-04-01T06:53:29;3.85;;;2.88;;
19280;SDS011;9774;52.034;5.342;2023-04-01T06:56:06;3.50;;;2.75;;
19280;SDS011;9774;52.034;5.342;2023-04-01T06:58:39;3.72;;;2.55;;
19280;SDS011;9774;52.034;5.342;2023-04-01T07:01:14;2.83;;;1.98;;
19280;SDS011;9774;52.034;5.342;2023-04-01T07:03:47;2.42;;;1.90;;
19280;SDS011;9774;52.034;5.342;2023-04-01T07:06:23;2.88;;;2.20;;
19280;SDS011;9774;52.034;5.342;2023-04-01T07:08:53;2.80;;;1.77;;
19280;SDS011;9774;52.034;5.342;2023-04-01T07:11:26;1.88;;;1.45;;
19280;SDS011;9774;52.034;5.342;2023-04-01T07:13:59;2.22;;;1.70;;
19280;SDS011;9774;52.034;5.342;2023-04-01T07:16:31;4.57;;;1.65;;
19280;SDS011;9774;52.034;5.342;2023-04-01T07:19:01;3.42;;;1.85;;
19280;SDS011;9774;52.034;5.342;2023-04-01T07:21:33;3.72;;;1.80;;
19280;SDS011;9774;52.034;5.342;2023-04-01T07:24:06;2.33;;;2.05;;
19280;SDS011;9774;52.034;5.342;2023-04-01T07:26:38;2.20;;;1.67;;
19280;SDS011;9774;52.034;5.342;2023-04-01T07:29:08;2.22;;;1.60;;
19280;SDS011;9774;52.034;5.342;2023-04-01T07:31:45;2.00;;;1.77;;
19280;SDS011;9774;52.034;5.342;2023-04-01T07:34:22;2.00;;;1.40;;
19280;SDS011;9774;52.034;5.342;2023-04-01T07:36:53;2.33;;;1.33;;
19280;SDS011;9774;52.034;5.342;2023-04-01T07:39:29;2.42;;;1.67;;
19280;SDS011;9774;52.034;5.342;2023-04-01T07:42:04;2.60;;;1.90;;
19280;SDS011;9774;52.034;5.342;2023-04-01T07:44:42;3.22;;;1.98;;
19280;SDS011;9774;52.034;5.342;2023-04-01T07:47:22;2.35;;;2.00;;
19280;SDS011;9774;52.034;5.342;2023-04-01T07:50:08;2.92;;;2.38;;
19280;SDS011;9774;52.034;5.342;2023-04-01T07:52:45;3.10;;;2.22;;
19280;SDS011;9774;52.034;5.342;2023-04-01T07:55:18;3.70;;;2.15;;
19280;SDS011;9774;52.034;5.342;2023-04-01T07:57:51;3.50;;;2.80;;
19280;SDS011;9774;52.034;5.342;2023-04-01T08:00:27;4.25;;;2.88;;
19280;SDS011;9774;52.034;5.342;2023-04-01T08:03:03;4.43;;;2.88;;
19280;SDS011;9774;52.034;5.342;2023-04-01T08:05:46;2.83;;;2.30;;
19280;SDS011;9774;52.034;5.342;2023-04-01T08:08:22;4.25;;;3.22;;
19280;SDS011;9774;52.034;5.342;2023-04-01T08:10:59;3.97;;;2.60;;
19280;SDS011;9774;52.034;5.342;2023-04-01T08:13:34;3.67;;;2.70;;
19280;SDS011;9774;52.034;5.342;2023-04-01T08:16:13;3.47;;;3.03;;
19280;SDS011;9774;52.034;5.342;2023-04-01T08:18:46;3.55;;;2.92;;
19280;SDS011;9774;52.034;5.342;2023-04-01T08:21:21;4.20;;;3.63;;
19280;SDS011;9774;52.034;5.342;2023-04-01T08:23:51;4.93;;;3.25;;
19280;SDS011;9774;52.034;5.342;2023-04-01T08:26:24;4.78;;;3.17;;
19280;SDS011;9774;52.034;5.342;2023-04-01T08:28:59;3.25;;;2.72;;
19280;SDS011;9774;52.034;5.342;2023-04-01T08:31:32;3.90;;;3.10;;
19280;SDS011;9774;52.034;5.342;2023-04-01T08:34:02;4.38;;;3.17;;
19280;SDS011;9774;52.034;5.342;2023-04-01T08:36:35;5.22;;;3.60;;
19280;SDS011;9774;52.034;5.342;2023-04-01T08:39:07;4.65;;;2.90;;
19280;SDS011;9774;52.034;5.342;2023-04-01T08:41:48;3.50;;;2.97;;
19280;SDS011;9774;52.034;5.342;2023-04-01T08:45:01;3.58;;;2.97;;
19280;SDS011;9774;52.034;5.342;2023-04-01T08:47:46;4.88;;;3.45;;
19280;SDS011;9774;52.034;5.342;2023-04-01T08:50:26;4.22;;;3.45;;
19280;SDS011;9774;52.034;5.342;2023-04-01T08:53:03;4.28;;;2.92;;
19280;SDS011;9774;52.034;5.342;2023-04-01T08:55:40;4.45;;;3.55;;
19280;SDS011;9774;52.034;5.342;2023-04-01T08:58:21;5.70;;;3.65;;
19280;SDS011;9774;52.034;5.342;2023-04-01T09:01:14;4.88;;;3.25;;
19280;SDS011;9774;52.034;5.342;2023-04-01T09:03:56;3.92;;;3.10;;
19280;SDS011;9774;52.034;5.342;2023-04-01T09:06:40;4.82;;;3.25;;
19280;SDS011;9774;52.034;5.342;2023-04-01T09:09:31;4.80;;;3.17;;
19280;SDS011;9774;52.034;5.342;2023-04-01T09:27:02;4.95;;;3.42;;
19280;SDS011;9774;52.034;5.342;2023-04-01T09:29:43;6.10;;;4.00;;
19280;SDS011;9774;52.034;5.342;2023-04-01T09:35:38;6.47;;;3.63;;
19280;SDS011;9774;52.034;5.342;2023-04-01T09:38:17;5.68;;;3.95;;
19280;SDS011;9774;52.034;5.342;2023-04-01T09:40:51;5.60;;;4.13;;
19280;SDS011;9774;52.034;5.342;2023-04-01T09:43:26;6.85;;;4.20;;
19280;SDS011;9774;52.034;5.342;2023-04-01T09:46:04;5.32;;;3.65;;
19280;SDS011;9774;52.034;5.342;2023-04-01T09:48:46;5.10;;;3.20;;
19280;SDS011;9774;52.034;5.342;2023-04-01T09:51:40;5.22;;;2.80;;
19280;SDS011;9774;52.034;5.342;2023-04-01T09:54:24;3.53;;;2.70;;
19280;SDS011;9774;52.034;5.342;2023-04-01T10:00:10;5.25;;;2.75;;
19280;SDS011;9774;52.034;5.342;2023-04-01T10:06:24;3.03;;;2.28;;
19280;SDS011;9774;52.034;5.342;2023-04-01T10:09:31;3.45;;;2.60;;
19280;SDS011;9774;52.034;5.342;2023-04-01T10:12:29;4.70;;;2.58;;
19280;SDS011;9774;52.034;5.342;2023-04-01T10:18:18;3.30;;;2.10;;
19280;SDS011;9774;52.034;5.342;2023-04-01T10:21:16;3.47;;;2.08;;
19280;SDS011;9774;52.034;5.342;2023-04-01T10:24:09;2.55;;;1.83;;
19280;SDS011;9774;52.034;5.342;2023-04-01T10:26:58;2.17;;;1.60;;
19280;SDS011;9774;52.034;5.342;2023-04-01T10:32:59;1.92;;;1.33;;
19280;SDS011;9774;52.034;5.342;2023-04-01T10:38:50;3.17;;;2.05;;
19280;SDS011;9774;52.034;5.342;2023-04-01T10:44:51;2.60;;;2.00;;
19280;SDS011;9774;52.034;5.342;2023-04-01T10:47:49;1.95;;;1.65;;
19280;SDS011;9774;52.034;5.342;2023-04-01T10:50:51;2.97;;;2.00;;
19280;SDS011;9774;52.034;5.342;2023-04-01T10:53:46;3.15;;;1.58;;
19280;SDS011;9774;52.034;5.342;2023-04-01T10:56:42;4.65;;;2.00;;
19280;SDS011;9774;52.034;5.342;2023-04-01T10:59:32;2.17;;;1.60;;
19280;SDS011;9774;52.034;5.342;2023-04-01T11:02:35;2.33;;;1.73;;
19280;SDS011;9774;52.034;5.342;2023-04-01T11:05:52;2.17;;;1.85;;
19280;SDS011;9774;52.034;5.342;2023-04-01T11:09:04;3.13;;;2.50;;
19280;SDS011;9774;52.034;5.342;2023-04-01T11:15:15;2.22;;;1.90;;
19280;SDS011;9774;52.034;5.342;2023-04-01T11:18:06;2.53;;;2.17;;
19280;SDS011;9774;52.034;5.342;2023-04-01T11:21:30;2.85;;;1.90;;
19280;SDS011;9774;52.034;5.342;2023-04-01T11:24:21;2.35;;;2.08;;
19280;SDS011;9774;52.034;5.342;2023-04-01T11:27:16;2.00;;;1.60;;
19280;SDS011;9774;52.034;5.342;2023-04-01T11:30:02;5.03;;;1.98;;
19280;SDS011;9774;52.034;5.342;2023-04-01T11:32:52;2.30;;;2.10;;
19280;SDS011;9774;52.034;5.342;2023-04-01T11:38:53;1.92;;;1.58;;
19280;SDS011;9774;52.034;5.342;2023-04-01T11:41:31;1.63;;;1.52;;
19280;SDS011;9774;52.034;5.342;2023-04-01T11:44:16;1.90;;;1.52;;
19280;SDS011;9774;52.034;5.342;2023-04-01T11:46:52;1.25;;;0.85;;
19280;SDS011;9774;52.034;5.342;2023-04-01T11:49:43;1.63;;;1.00;;
19280;SDS011;9774;52.034;5.342;2023-04-01T11:52:21;1.17;;;0.82;;
19280;SDS011;9774;52.034;5.342;2023-04-01T11:55:18;1.52;;;1.20;;
19280;SDS011;9774;52.034;5.342;2023-04-01T11:57:56;1.38;;;1.25;;
19280;SDS011;9774;52.034;5.342;2023-04-01T12:00:56;2.08;;;1.33;;
19280;SDS011;9774;52.034;5.342;2023-04-01T12:03:36;1.10;;;0.85;;
19280;SDS011;9774;52.034;5.342;2023-04-01T12:06:14;1.17;;;1.02;;
19280;SDS011;9774;52.034;5.342;2023-04-01T12:08:50;1.00;;;0.70;;
19280;SDS011;9774;52.034;5.342;2023-04-01T12:11:26;1.08;;;0.80;;
19280;SDS011;9774;52.034;5.342;2023-04-01T12:14:03;1.42;;;0.75;;
19280;SDS011;9774;52.034;5.342;2023-04-01T12:16:55;1.40;;;1.00;;
19280;SDS011;9774;52.034;5.342;2023-04-01T12:19:32;2.00;;;0.82;;
19280;SDS011;9774;52.034;5.342;2023-04-01T12:25:03;1.33;;;0.93;;
19280;SDS011;9774;52.034;5.342;2023-04-01T12:27:43;0.98;;;0.80;;
19280;SDS011;9774;52.034;5.342;2023-04-01T12:33:26;1.40;;;1.00;;
19280;SDS011;9774;52.034;5.342;2023-04-01T12:36:13;1.95;;;1.08;;
19280;SDS011;9774;52.034;5.342;2023-04-01T12:38:59;2.67;;;1.23;;
19280;SDS011;9774;52.034;5.342;2023-04-01T12:41:45;2.00;;;1.30;;
19280;SDS011;9774;52.034;5.342;2023-04-01T12:44:26;1.55;;;1.00;;
19280;SDS011;9774;52.034;5.342;2023-04-01T12:47:21;2.33;;;1.92;;
19280;SDS011;9774;52.034;5.342;2023-04-01T12:50:11;1.50;;;1.35;;
19280;SDS011;9774;52.034;5.342;2023-04-01T12:52:55;2.67;;;2.05;;
19280;SDS011;9774;52.034;5.342;2023-04-01T12:55:37;1.80;;;1.52;;
19280;SDS011;9774;52.034;5.342;2023-04-01T12:58:24;2.28;;;1.80;;
19280;SDS011;9774;52.034;5.342;2023-04-01T13:04:37;2.40;;;2.00;;
19280;SDS011;9774;52.034;5.342;2023-04-01T13:07:23;2.45;;;1.92;;
19280;SDS011;9774;52.034;5.342;2023-04-01T13:10:18;2.17;;;1.73;;
19280;SDS011;9774;52.034;5.342;2023-04-01T13:13:02;2.70;;;1.98;;
19280;SDS011;9774;52.034;5.342;2023-04-01T13:15:40;2.42;;;2.22;;
19280;SDS011;9774;52.034;5.342;2023-04-01T13:18:22;2.67;;;2.28;;
19280;SDS011;9774;52.034;5.342;2023-04-01T13:20:59;2.50;;;2.00;;
19280;SDS011;9774;52.034;5.342;2023-04-01T13:23:36;2.58;;;2.13;;
19280;SDS011;9774;52.034;5.342;2023-04-01T13:26:17;4.03;;;2.10;;
19280;SDS011;9774;52.034;5.342;2023-04-01T13:28:52;2.80;;;2.28;;
19280;SDS011;9774;52.034;5.342;2023-04-01T13:31:29;2.97;;;2.30;;
19280;SDS011;9774;52.034;5.342;2023-04-01T13:34:08;3.92;;;2.20;;
19280;SDS011;9774;52.034;5.342;2023-04-01T13:36:48;2.83;;;2.53;;
19280;SDS011;9774;52.034;5.342;2023-04-01T13:39:25;4.55;;;2.55;;
19280;SDS011;9774;52.034;5.342;2023-04-01T13:42:09;3.42;;;2.55;;
19280;SDS011;9774;52.034;5.342;2023-04-01T13:44:44;2.67;;;2.38;;
19280;SDS011;9774;52.034;5.342;2023-04-01T13:47:21;4.20;;;3.08;;
19280;SDS011;9774;52.034;5.342;2023-04-01T13:50:08;4.00;;;3.15;;
19280;SDS011;9774;52.034;5.342;2023-04-01T13:53:17;3.22;;;2.45;;
19280;SDS011;9774;52.034;5.342;2023-04-01T13:55:55;2.85;;;2.50;;
19280;SDS011;9774;52.034;5.342;2023-04-01T13:58:37;3.53;;;2.20;;
19280;SDS011;9774;52.034;5.342;2023-04-01T14:01:13;2.70;;;1.80;;
19280;SDS011;9774;52.034;5.342;2023-04-01T14:04:01;1.80;;;1.70;;
19280;SDS011;9774;52.034;5.342;2023-04-01T14:06:59;2.67;;;2.08;;
19280;SDS011;9774;52.034;5.342;2023-04-01T14:09:40;2.20;;;2.00;;
19280;SDS011;9774;52.034;5.342;2023-04-01T14:12:30;2.05;;;1.48;;
19280;SDS011;9774;52.034;5.342;2023-04-01T14:15:07;2.70;;;1.80;;
19280;SDS011;9774;52.034;5.342;2023-04-01T14:17:54;1.48;;;1.00;;
19280;SDS011;9774;52.034;5.342;2023-04-01T14:20:40;1.25;;;1.15;;
19280;SDS011;9774;52.034;5.342;2023-04-01T14:26:44;0.77;;;0.77;;
19280;SDS011;9774;52.034;5.342;2023-04-01T14:29:52;0.90;;;0.70;;
19280;SDS011;9774;52.034;5.342;2023-04-01T14:32:34;0.95;;;0.85;;
19280;SDS011;9774;52.034;5.342;2023-04-01T14:35:16;1.25;;;1.10;;
19280;SDS011;9774;52.034;5.342;2023-04-01T14:46:53;1.70;;;1.52;;
19280;SDS011;9774;52.034;5.342;2023-04-01T14:49:37;2.42;;;1.80;;
19280;SDS011;9774;52.034;5.342;2023-04-01T14:52:10;2.00;;;1.42;;
19280;SDS011;9774;52.034;5.342;2023-04-01T14:54:41;1.70;;;1.52;;
19280;SDS011;9774;52.034;5.342;2023-04-01T14:57:11;1.77;;;1.55;;
19280;SDS011;9774;52.034;5.342;2023-04-01T14:59:41;2.50;;;2.20;;
19280;SDS011;9774;52.034;5.342;2023-04-01T15:02:35;2.10;;;1.90;;
19280;SDS011;9774;52.034;5.342;2023-04-01T15:05:15;2.90;;;2.13;;
19280;SDS011;9774;52.034;5.342;2023-04-01T15:08:03;3.25;;;1.55;;
19280;SDS011;9774;52.034;5.342;2023-04-01T15:13:50;2.47;;;2.22;;
19280;SDS011;9774;52.034;5.342;2023-04-01T15:16:49;2.58;;;1.90;;
19280;SDS011;9774;52.034;5.342;2023-04-01T15:19:28;1.83;;;1.60;;
19280;SDS011;9774;52.034;5.342;2023-04-01T15:22:15;2.40;;;2.00;;
19280;SDS011;9774;52.034;5.342;2023-04-01T15:24:56;2.47;;;2.25;;
19280;SDS011;9774;52.034;5.342;2023-04-01T15:27:40;2.40;;;2.10;;
19280;SDS011;9774;52.034;5.342;2023-04-01T15:30:17;2.25;;;2.00;;
19280;SDS011;9774;52.034;5.342;2023-04-01T15:32:58;1.92;;;1.67;;
19280;SDS011;9774;52.034;5.342;2023-04-01T15:35:57;2.30;;;2.10;;
19280;SDS011;9774;52.034;5.342;2023-04-01T15:38:35;2.03;;;1.80;;
19280;SDS011;9774;52.034;5.342;2023-04-01T15:41:14;2.30;;;2.10;;
19280;SDS011;9774;52.034;5.342;2023-04-01T15:43:43;2.10;;;1.73;;
19280;SDS011;9774;52.034;5.342;2023-04-01T15:46:16;3.15;;;1.63;;
19280;SDS011;9774;52.034;5.342;2023-04-01T15:48:57;2.17;;;1.70;;
19280;SDS011;9774;52.034;5.342;2023-04-01T15:51:43;2.08;;;1.67;;
19280;SDS011;9774;52.034;5.342;2023-04-01T15:57:24;2.47;;;1.70;;
19280;SDS011;9774;52.034;5.342;2023-04-01T16:00:02;1.92;;;1.42;;
19280;SDS011;9774;52.034;5.342;2023-04-01T16:02:43;1.90;;;1.70;;
19280;SDS011;9774;52.034;5.342;2023-04-01T16:05:23;2.00;;;1.80;;
19280;SDS011;9774;52.034;5.342;2023-04-01T16:08:01;2.20;;;1.75;;
19280;SDS011;9774;52.034;5.342;2023-04-01T16:10:52;1.85;;;1.50;;
19280;SDS011;9774;52.034;5.342;2023-04-01T16:13:40;2.65;;;1.98;;
19280;SDS011;9774;52.034;5.342;2023-04-01T16:16:17;1.92;;;1.70;;
19280;SDS011;9774;52.034;5.342;2023-04-01T16:19:08;2.25;;;1.90;;
19280;SDS011;9774;52.034;5.342;2023-04-01T16:21:54;1.52;;;1.35;;
19280;SDS011;9774;52.034;5.342;2023-04-01T16:24:30;1.85;;;1.70;;
19280;SDS011;9774;52.034;5.342;2023-04-01T16:27:02;1.65;;;1.50;;
19280;SDS011;9774;52.034;5.342;2023-04-01T16:29:38;2.03;;;1.70;;
19280;SDS011;9774;52.034;5.342;2023-04-01T16:32:17;1.80;;;1.70;;
19280;SDS011;9774;52.034;5.342;2023-04-01T16:35:03;2.42;;;1.70;;
19280;SDS011;9774;52.034;5.342;2023-04-01T16:37:45;1.98;;;1.73;;
19280;SDS011;9774;52.034;5.342;2023-04-01T16:40:16;2.10;;;1.90;;
19280;SDS011;9774;52.034;5.342;2023-04-01T16:42:52;2.97;;;2.13;;
19280;SDS011;9774;52.034;5.342;2023-04-01T16:45:28;2.15;;;1.95;;
19280;SDS011;9774;52.034;5.342;2023-04-01T16:48:00;2.55;;;2.05;;
19280;SDS011;9774;52.034;5.342;2023-04-01T16:50:39;1.92;;;1.40;;
19280;SDS011;9774;52.034;5.342;2023-04-01T16:53:17;2.13;;;1.67;;
19280;SDS011;9774;52.034;5.342;2023-04-01T16:55:51;3.45;;;2.20;;
19280;SDS011;9774;52.034;5.342;2023-04-01T16:58:26;1.80;;;1.63;;
19280;SDS011;9774;52.034;5.342;2023-04-01T17:01:00;3.65;;;2.33;;
19280;SDS011;9774;52.034;5.342;2023-04-01T17:03:32;2.33;;;2.00;;
19280;SDS011;9774;52.034;5.342;2023-04-01T17:06:11;2.58;;;1.98;;
19280;SDS011;9774;52.034;5.342;2023-04-01T17:08:55;2.13;;;1.92;;
19280;SDS011;9774;52.034;5.342;2023-04-01T17:11:43;2.53;;;2.33;;
19280;SDS011;9774;52.034;5.342;2023-04-01T17:14:17;2.35;;;2.15;;
19280;SDS011;9774;52.034;5.342;2023-04-01T17:16:54;2.63;;;2.40;;
19280;SDS011;9774;52.034;5.342;2023-04-01T17:19:44;2.60;;;2.10;;
19280;SDS011;9774;52.034;5.342;2023-04-01T17:22:27;2.30;;;2.03;;
19280;SDS011;9774;52.034;5.342;2023-04-01T17:25:04;2.60;;;2.22;;